Time;durP1;ratioP1;P1;durP2;ratioP2;P2;SDS_P1;SDS_P2;PMS_P1;PMS_P2;Temp;Humidity;BMP_temperature;BMP_pressure;BME280_temperature;BME280_humidity;BME280_pressure;Samples;Min_cycle;Max_cycle;Signal;HPM_P1;HPM_P2
2023/01/11 00:00:40;;;;;;;28.50;16.75;;;5.30;73.20;;;;;;6053644;23;115150;-84
2023/01/11 00:03:10;;;;;;;30.25;15.93;;;5.30;73.20;;;;;;6076470;23;114387;-84
2023/01/11 00:05:42;;;;;;;30.42;18.27;;;5.20;73.30;;;;;;6002724;23;114990;-83
2023/01/11 00:08:09;;;;;;;31.20;17.55;;;5.30;73.20;;;;;;6052766;23;114714;-84
2023/01/11 00:10:37;;;;;;;31.90;18.33;;;5.20;73.10;;;;;;6026670;23;115120;-84
2023/01/11 00:13:05;;;;;;;28.67;17.27;;;5.20;73.10;;;;;;6003989;23;114674;-83
2023/01/11 00:15:34;;;;;;;32.22;17.90;;;5.20;73.10;;;;;;6074417;23;118915;-83
2023/01/11 00:18:01;;;;;;;34.70;17.40;;;5.20;73.00;;;;;;6050637;23;114532;-82
2023/01/11 00:20:29;;;;;;;28.67;17.65;;;5.20;73.10;;;;;;6026871;23;114810;-83
2023/01/11 00:22:56;;;;;;;27.95;16.58;;;5.20;73.10;;;;;;6052928;23;114769;-83
2023/01/11 00:25:23;;;;;;;30.13;16.60;;;5.20;73.20;;;;;;6025864;23;114948;-83
2023/01/11 00:27:53;;;;;;;26.83;16.02;;;5.20;73.30;;;;;;6025964;23;114954;-82
2023/01/11 00:30:20;;;;;;;30.15;16.65;;;5.20;73.30;;;;;;6003327;23;114445;-82
2023/01/11 00:32:58;;;;;;;29.42;17.52;;;5.20;73.30;;;;;;6051916;23;115100;-83
2023/01/11 00:35:26;;;;;;;31.55;17.35;;;5.20;73.30;;;;;;6002974;23;115041;-83
2023/01/11 00:37:53;;;;;;;29.20;17.35;;;5.20;73.40;;;;;;6052848;23;114531;-82
2023/01/11 00:40:22;;;;;;;30.73;17.40;;;5.10;73.20;;;;;;6052452;23;114377;-84
2023/01/11 00:48:23;;;;;;;31.02;18.13;;;5.10;73.40;;;;;;6052271;23;115117;-83
2023/01/11 00:50:53;;;;;;;31.85;17.30;;;5.20;73.50;;;;;;6053824;23;115321;-84
2023/01/11 00:53:20;;;;;;;32.50;17.95;;;5.20;73.50;;;;;;6005154;23;115453;-83
2023/01/11 00:55:47;;;;;;;31.15;17.98;;;5.20;73.50;;;;;;6051255;23;114965;-82
2023/01/11 00:58:15;;;;;;;31.80;17.50;;;5.10;73.40;;;;;;6054885;23;114471;-82
2023/01/11 01:00:43;;;;;;;33.90;18.65;;;5.20;73.50;;;;;;6059137;23;114579;-83
2023/01/11 01:03:10;;;;;;;29.70;17.23;;;5.20;73.40;;;;;;6055284;23;114443;-82
2023/01/11 01:05:38;;;;;;;31.15;18.30;;;5.20;73.50;;;;;;6052435;23;115104;-83
2023/01/11 01:08:05;;;;;;;34.10;18.88;;;5.20;73.50;;;;;;6050850;23;114668;-83
2023/01/11 01:10:32;;;;;;;32.88;20.17;;;5.20;73.40;;;;;;6028298;23;114401;-83
2023/01/11 01:15:46;;;;;;;32.33;19.67;;;5.20;73.40;;;;;;6051238;23;115105;-83
2023/01/11 01:18:13;;;;;;;37.15;19.42;;;5.20;73.30;;;;;;6051023;23;114525;-83
2023/01/11 01:20:40;;;;;;;30.50;18.55;;;5.10;73.40;;;;;;6053936;23;114571;-83
2023/01/11 01:23:07;;;;;;;30.17;18.10;;;5.20;73.50;;;;;;6052174;23;114447;-83
2023/01/11 01:25:36;;;;;;;33.83;18.52;;;5.10;73.50;;;;;;6050562;23;115120;-82
2023/01/11 01:28:04;;;;;;;31.55;18.77;;;5.10;73.60;;;;;;6050729;23;115170;-83
2023/01/11 01:30:32;;;;;;;33.90;17.95;;;5.10;73.60;;;;;;6053318;23;114296;-83
2023/01/11 01:33:01;;;;;;;30.83;18.70;;;5.20;73.60;;;;;;6053410;23;114353;-83
2023/01/11 01:35:28;;;;;;;36.40;19.65;;;5.20;73.60;;;;;;6050541;23;114992;-83
2023/01/11 01:37:55;;;;;;;34.88;19.70;;;5.20;73.50;;;;;;6026912;23;115991;-84
2023/01/11 01:40:22;;;;;;;35.97;18.23;;;5.20;73.60;;;;;;6053504;23;114609;-82
2023/01/11 01:42:54;;;;;;;33.00;18.08;;;5.10;73.50;;;;;;6052391;23;116459;-83
2023/01/11 01:45:23;;;;;;;34.03;20.38;;;5.20;73.40;;;;;;6050697;23;115372;-83
2023/01/11 01:47:56;;;;;;;35.28;19.73;;;5.20;73.40;;;;;;6050783;23;114969;-83
2023/01/11 01:50:43;;;;;;;32.40;18.52;;;5.10;73.40;;;;;;6004360;23;114512;-83
2023/01/11 01:53:28;;;;;;;35.38;19.65;;;5.20;73.40;;;;;;6052648;23;114400;-83
2023/01/11 01:55:59;;;;;;;33.90;18.25;;;5.10;73.50;;;;;;6006761;23;114704;-83
2023/01/11 01:58:34;;;;;;;30.08;18.23;;;5.10;73.60;;;;;;6026990;23;114721;-83
2023/01/11 02:01:45;;;;;;;33.47;19.27;;;5.10;73.50;;;;;;6052258;23;114447;-83
2023/01/11 02:03:49;;;;;;;33.47;20.05;;;5.10;73.60;;;;;;6012177;23;114598;-82
2023/01/11 02:06:19;;;;;;;34.20;19.58;;;5.10;73.50;;;;;;6031127;23;119400;-82
2023/01/11 02:08:50;;;;;;;35.15;20.55;;;5.10;73.50;;;;;;6005035;23;117976;-82
2023/01/11 02:11:30;;;;;;;35.47;20.48;;;5.20;73.50;;;;;;6006829;23;114366;-83
2023/01/11 02:14:05;;;;;;;31.65;19.50;;;5.20;73.50;;;;;;6053035;23;114641;-84
2023/01/11 02:16:32;;;;;;;35.13;19.02;;;5.20;73.50;;;;;;6051041;23;115623;-83
2023/01/11 02:19:00;;;;;;;34.38;21.67;;;5.10;73.40;;;;;;6003743;23;114705;-83
2023/01/11 02:21:48;;;;;;;36.53;20.45;;;5.20;73.40;;;;;;6028722;23;114281;-83
2023/01/11 02:24:49;;;;;;;35.80;21.60;;;5.20;73.30;;;;;;6054195;23;114831;-83
2023/01/11 02:27:47;;;;;;;36.55;21.80;;;5.10;73.20;;;;;;6050471;23;114992;-84
2023/01/11 02:30:25;;;;;;;39.25;22.70;;;5.20;73.20;;;;;;6052129;23;114675;-83
2023/01/11 02:33:31;;;;;;;38.85;20.85;;;5.10;73.30;;;;;;6004568;23;114532;-82
2023/01/11 02:36:08;;;;;;;33.70;19.38;;;5.10;73.20;;;;;;6031927;23;114444;-84
2023/01/11 02:39:14;;;;;;;34.00;20.48;;;5.10;73.40;;;;;;6051758;23;114342;-83
2023/01/11 02:45:02;;;;;;;32.15;19.42;;;5.10;73.40;;;;;;6057157;23;116279;-83
2023/01/11 02:47:45;;;;;;;35.40;20.55;;;5.10;73.40;;;;;;6083647;23;114498;-83
2023/01/11 02:50:28;;;;;;;31.38;19.75;;;5.10;73.40;;;;;;6052389;23;117132;-83
2023/01/11 02:53:38;;;;;;;34.92;19.65;;;5.10;73.50;;;;;;5983065;23;116130;-83
2023/01/11 02:56:11;;;;;;;33.75;19.77;;;5.10;73.50;;;;;;6039168;23;114961;-84
2023/01/11 02:58:39;;;;;;;36.38;20.58;;;5.10;73.50;;;;;;6051874;23;114645;-84
2023/01/11 03:01:06;;;;;;;34.15;19.77;;;5.10;73.40;;;;;;6050823;23;114968;-83
2023/01/11 03:03:34;;;;;;;39.88;22.67;;;5.10;73.40;;;;;;6051241;23;114679;-83
2023/01/11 03:06:19;;;;;;;40.20;22.50;;;5.10;73.30;;;;;;6051865;23;114619;-84
2023/01/11 03:09:01;;;;;;;37.42;22.17;;;5.00;73.40;;;;;;6005141;23;115304;-83
2023/01/11 03:14:53;;;;;;;38.53;20.42;;;5.00;73.50;;;;;;6050766;23;114610;-84
2023/01/11 03:17:36;;;;;;;34.80;21.40;;;5.00;73.10;;;;;;6052065;23;114653;-83
2023/01/11 03:20:07;;;;;;;35.15;21.27;;;4.90;73.30;;;;;;6052929;23;114681;-84
2023/01/11 03:23:09;;;;;;;33.47;21.48;;;4.80;73.70;;;;;;6051897;23;114930;-84
2023/01/11 03:26:02;;;;;;;37.55;21.48;;;4.90;73.60;;;;;;6003230;23;114531;-84
2023/01/11 03:28:55;;;;;;;36.03;21.25;;;4.90;73.70;;;;;;6035648;23;114440;-83
2023/01/11 03:31:51;;;;;;;39.25;21.58;;;5.00;73.80;;;;;;6051964;23;115988;-84
2023/01/11 03:35:02;;;;;;;37.83;22.90;;;5.00;73.60;;;;;;5977698;23;116268;-84
2023/01/11 03:38:15;;;;;;;35.22;21.83;;;5.10;73.40;;;;;;6049683;23;114653;-83
2023/01/11 03:40:49;;;;;;;35.75;22.67;;;5.00;73.50;;;;;;6038228;23;116090;-83
2023/01/11 03:43:17;;;;;;;;;;;5.00;73.60;;;;;;6004994;23;114711;-84
2023/01/11 03:45:59;;;;;;;36.70;21.17;;;5.00;73.40;;;;;;6050044;23;114959;-82
2023/01/11 03:48:46;;;;;;;40.80;21.65;;;5.00;73.70;;;;;;5979643;23;114764;-82
2023/01/11 03:51:16;;;;;;;36.90;23.55;;;5.10;73.50;;;;;;6050937;23;114320;-83
2023/01/11 03:53:47;;;;;;;38.38;21.45;;;5.10;73.50;;;;;;6050766;23;114721;-83
2023/01/11 03:56:16;;;;;;;37.90;22.38;;;5.10;73.50;;;;;;6003158;23;115087;-83
2023/01/11 03:58:44;;;;;;;40.03;23.42;;;5.10;73.40;;;;;;6026689;23;114673;-83
2023/01/11 04:01:11;;;;;;;38.80;22.33;;;5.10;73.30;;;;;;6050720;23;114326;-83
2023/01/11 04:03:42;;;;;;;42.92;23.08;;;5.10;73.20;;;;;;6027727;23;114435;-83
2023/01/11 04:06:09;;;;;;;42.28;24.45;;;5.10;73.00;;;;;;6050001;23;115196;-84
2023/01/11 04:08:36;;;;;;;39.88;24.02;;;5.10;72.90;;;;;;6051157;23;114529;-83
2023/01/11 04:11:04;;;;;;;42.15;24.58;;;5.10;73.10;;;;;;6052257;23;114614;-83
2023/01/11 04:13:32;;;;;;;37.88;22.60;;;5.10;73.00;;;;;;6052395;23;114543;-84
2023/01/11 04:16:00;;;;;;;36.63;23.83;;;5.10;73.10;;;;;;6059095;23;115578;-84
2023/01/11 04:18:27;;;;;;;41.17;24.80;;;5.10;73.00;;;;;;5987142;23;115016;-84
2023/01/11 04:20:54;;;;;;;38.78;24.13;;;5.10;73.00;;;;;;6057240;23;114295;-84
2023/01/11 04:23:21;;;;;;;38.90;23.05;;;5.10;73.10;;;;;;6056322;23;114615;-84
2023/01/11 04:25:49;;;;;;;41.75;24.63;;;5.10;73.20;;;;;;6053371;23;116700;-83
2023/01/11 04:28:19;;;;;;;44.22;25.20;;;5.10;73.00;;;;;;6054777;23;114527;-83
2023/01/11 04:30:47;;;;;;;39.15;25.67;;;5.20;73.00;;;;;;6058400;23;114189;-83
2023/01/11 04:33:14;;;;;;;44.30;26.58;;;5.20;73.10;;;;;;6059104;23;114903;-83
2023/01/11 04:35:42;;;;;;;39.28;25.80;;;5.10;73.00;;;;;;6053323;23;114964;-84
2023/01/11 04:38:10;;;;;;;42.03;24.08;;;5.10;73.00;;;;;;6053654;23;115155;-85
2023/01/11 04:40:37;;;;;;;38.92;25.15;;;5.10;73.00;;;;;;6007351;23;114631;-84
2023/01/11 04:43:06;;;;;;;42.20;24.95;;;5.10;72.90;;;;;;6053925;23;114657;-84
2023/01/11 04:45:33;;;;;;;37.53;23.80;;;5.10;73.10;;;;;;6051944;23;115149;-84
2023/01/11 04:48:00;;;;;;;40.70;25.10;;;5.10;72.90;;;;;;6076343;23;118666;-84
2023/01/11 04:50:27;;;;;;;38.00;24.27;;;5.10;73.00;;;;;;6053139;23;114454;-83
2023/01/11 04:52:56;;;;;;;42.13;24.63;;;5.10;72.90;;;;;;6051709;23;114425;-84
2023/01/11 04:55:23;;;;;;;43.72;25.05;;;5.10;73.00;;;;;;6026265;23;114944;-84
2023/01/11 04:57:51;;;;;;;43.42;26.55;;;5.10;73.00;;;;;;6050724;23;115123;-84
2023/01/11 05:00:18;;;;;;;40.92;24.17;;;5.10;72.90;;;;;;6027125;23;114625;-84
2023/01/11 05:02:45;;;;;;;36.97;24.05;;;5.10;72.90;;;;;;6027693;23;114761;-84
2023/01/11 05:05:12;;;;;;;43.83;23.98;;;5.10;73.10;;;;;;6050246;23;115041;-84
2023/01/11 05:07:40;;;;;;;37.47;24.00;;;5.00;73.10;;;;;;6050291;23;115434;-84
2023/01/11 05:10:08;;;;;;;35.38;21.77;;;4.90;73.20;;;;;;6051129;23;114457;-83
2023/01/11 05:12:35;;;;;;;38.75;23.00;;;5.00;73.20;;;;;;6076270;23;114314;-83
2023/01/11 05:15:02;;;;;;;39.65;23.33;;;4.90;73.20;;;;;;6050094;23;116323;-84
2023/01/11 05:17:30;;;;;;;38.33;24.23;;;4.90;73.20;;;;;;6049808;23;114592;-84
2023/01/11 05:19:57;;;;;;;41.90;25.17;;;4.90;73.10;;;;;;6052160;23;114591;-84
2023/01/11 05:22:24;;;;;;;46.35;27.52;;;4.90;73.30;;;;;;6052798;23;114327;-83
2023/01/11 05:24:51;;;;;;;41.85;26.40;;;4.90;73.10;;;;;;6051762;23;115082;-84
2023/01/11 05:27:18;;;;;;;41.97;27.40;;;4.90;73.20;;;;;;6025669;23;114695;-83
2023/01/11 05:29:45;;;;;;;43.78;26.73;;;4.90;73.30;;;;;;6051456;23;115962;-83
2023/01/11 05:32:12;;;;;;;42.28;27.40;;;4.90;73.30;;;;;;6052575;23;114437;-83
2023/01/11 05:34:40;;;;;;;42.85;27.85;;;4.90;73.30;;;;;;6051404;23;115006;-83
2023/01/11 05:37:07;;;;;;;43.25;27.85;;;4.90;73.40;;;;;;6051867;23;114578;-84
2023/01/11 05:39:34;;;;;;;43.60;26.02;;;4.90;73.40;;;;;;6074847;23;114730;-84
2023/01/11 05:42:01;;;;;;;50.47;30.60;;;4.90;73.50;;;;;;6027317;23;114708;-83
2023/01/11 05:47:15;;;;;;;49.35;30.00;;;4.90;73.40;;;;;;6051168;23;114647;-83
2023/01/11 05:49:42;;;;;;;51.25;28.92;;;4.80;73.40;;;;;;6052590;23;114645;-83
2023/01/11 05:52:09;;;;;;;62.22;33.85;;;4.80;73.40;;;;;;6027681;23;115345;-83
2023/01/11 05:54:36;;;;;;;52.55;30.70;;;4.80;73.50;;;;;;6074408;23;114992;-83
2023/01/11 05:57:09;;;;;;;43.33;26.15;;;4.80;73.40;;;;;;6074277;23;117502;-84
2023/01/11 05:59:36;;;;;;;43.60;27.77;;;4.70;73.40;;;;;;6052688;23;114414;-84
2023/01/11 06:02:03;;;;;;;48.60;28.42;;;4.70;73.50;;;;;;6052699;23;114757;-83
2023/01/11 06:04:31;;;;;;;44.90;27.33;;;4.70;73.60;;;;;;6050319;23;115558;-83
2023/01/11 06:06:58;;;;;;;47.97;28.08;;;4.70;73.70;;;;;;6051567;23;114469;-83
2023/01/11 06:09:25;;;;;;;47.08;27.85;;;4.70;73.60;;;;;;6044198;23;114580;-83
2023/01/11 06:11:53;;;;;;;40.90;25.55;;;4.70;73.50;;;;;;6050744;23;114634;-83
2023/01/11 06:14:20;;;;;;;46.30;27.38;;;4.60;73.60;;;;;;6051299;23;115008;-83
2023/01/11 06:16:47;;;;;;;52.72;30.35;;;4.60;73.60;;;;;;6057489;23;114325;-84
2023/01/11 06:19:15;;;;;;;57.70;32.65;;;4.60;73.50;;;;;;6058458;23;114435;-83
2023/01/11 06:21:42;;;;;;;55.88;32.78;;;4.50;73.40;;;;;;6026923;23;114333;-83
2023/01/11 06:24:09;;;;;;;70.07;36.88;;;4.40;73.40;;;;;;6049421;23;115024;-83
2023/01/11 06:26:37;;;;;;;67.25;36.45;;;4.40;73.40;;;;;;6049981;23;117396;-83
2023/01/11 06:29:04;;;;;;;64.90;35.20;;;4.40;73.40;;;;;;6022873;23;114464;-83
2023/01/11 06:31:31;;;;;;;68.82;36.83;;;4.20;73.60;;;;;;6023548;23;115106;-82
2023/01/11 06:33:59;;;;;;;63.85;32.80;;;4.20;73.50;;;;;;6021487;23;115630;-83
2023/01/11 06:36:26;;;;;;;58.42;30.83;;;4.20;73.50;;;;;;6020371;23;115807;-83
2023/01/11 06:38:55;;;;;;;57.22;32.55;;;4.20;73.60;;;;;;6023225;23;114623;-83
2023/01/11 06:41:23;;;;;;;51.88;29.23;;;4.20;73.80;;;;;;6023463;23;114380;-83
2023/01/11 06:43:50;;;;;;;64.50;33.25;;;4.10;73.90;;;;;;6021909;23;116385;-82
2023/01/11 06:46:18;;;;;;;57.60;31.90;;;4.10;73.70;;;;;;5996911;23;114688;-83
2023/01/11 06:48:45;;;;;;;54.13;30.20;;;4.00;73.70;;;;;;6023148;23;115529;-83
2023/01/11 06:51:13;;;;;;;53.22;29.80;;;4.00;73.80;;;;;;6021688;23;114788;-83
2023/01/11 06:53:41;;;;;;;53.25;29.65;;;4.00;73.90;;;;;;5996728;23;114916;-84
2023/01/11 06:56:13;;;;;;;48.80;28.10;;;4.00;73.80;;;;;;6044355;23;114726;-83
2023/01/11 06:58:40;;;;;;;57.70;32.17;;;4.00;73.90;;;;;;6020975;23;114658;-83
2023/01/11 07:01:19;;;;;;;63.85;33.40;;;4.00;73.70;;;;;;5997330;23;114771;-83
2023/01/11 07:03:46;;;;;;;69.88;37.63;;;4.00;73.80;;;;;;5973773;23;117967;-84
2023/01/11 07:06:14;;;;;;;82.97;39.03;;;4.00;73.80;;;;;;6021932;23;114712;-84
2023/01/11 07:08:41;;;;;;;104.57;42.42;;;3.90;73.60;;;;;;6045912;23;114698;-83
2023/01/11 07:11:08;;;;;;;89.20;39.20;;;3.90;73.60;;;;;;6021108;23;115160;-83
2023/01/11 07:13:36;;;;;;;80.18;40.92;;;3.80;73.60;;;;;;6020532;23;115183;-83
2023/01/11 07:16:03;;;;;;;67.13;35.53;;;3.80;73.60;;;;;;6022371;23;115138;-83
2023/01/11 07:18:32;;;;;;;90.68;38.85;;;3.70;73.60;;;;;;6046139;23;114330;-82
2023/01/11 07:20:59;;;;;;;86.93;40.03;;;3.70;73.60;;;;;;5997985;23;114612;-82
2023/01/11 07:23:26;;;;;;;94.53;45.13;;;3.70;73.60;;;;;;6043995;23;116041;-82
2023/01/11 07:25:54;;;;;;;119.75;38.60;;;3.70;73.60;;;;;;6044732;23;115245;-82
2023/01/11 07:28:21;;;;;;;70.50;39.33;;;3.60;73.60;;;;;;6043513;23;114321;-82
2023/01/11 07:30:48;;;;;;;85.68;44.65;;;3.50;73.90;;;;;;6051773;23;114737;-82
2023/01/11 07:33:25;;;;;;;82.57;43.63;;;3.50;74.20;;;;;;6050871;23;115570;-83
2023/01/11 07:35:52;;;;;;;74.63;38.67;;;3.60;74.20;;;;;;6049186;23;114596;-82
2023/01/11 07:38:20;;;;;;;65.63;38.70;;;3.70;74.10;;;;;;6026470;23;114348;-83
2023/01/11 07:40:47;;;;;;;60.55;34.67;;;3.70;74.00;;;;;;6051135;23;114756;-82
2023/01/11 07:43:14;;;;;;;72.70;39.78;;;3.80;73.80;;;;;;6051951;23;115077;-83
2023/01/11 07:45:47;;;;;;;82.53;42.67;;;3.90;73.50;;;;;;6051939;23;114558;-82
2023/01/11 07:48:23;;;;;;;87.07;47.90;;;4.00;73.50;;;;;;6052640;23;114626;-83
2023/01/11 07:50:52;;;;;;;99.93;54.90;;;4.10;73.30;;;;;;6006859;23;114788;-82
2023/01/11 07:53:19;;;;;;;98.82;54.72;;;4.10;73.10;;;;;;6026509;23;115225;-82
2023/01/11 07:55:47;;;;;;;141.65;76.47;;;4.20;73.00;;;;;;6026294;23;114798;-84
2023/01/11 07:58:14;;;;;;;144.10;75.22;;;4.30;72.80;;;;;;6027624;23;114455;-82
2023/01/11 08:00:44;;;;;;;125.70;69.43;;;4.40;72.70;;;;;;6004374;23;114764;-83
2023/01/11 08:03:12;;;;;;;87.65;48.60;;;4.40;72.60;;;;;;6043659;23;114398;-83
2023/01/11 08:05:39;;;;;;;90.78;50.85;;;4.50;72.60;;;;;;6066340;23;114210;-83
2023/01/11 08:08:07;;;;;;;73.47;40.88;;;4.60;72.50;;;;;;6054807;23;114458;-83
2023/01/11 08:10:34;;;;;;;77.70;42.75;;;4.60;72.30;;;;;;6027102;23;114329;-83
2023/01/11 08:15:47;;;;;;;63.53;34.47;;;4.70;72.10;;;;;;6051909;23;114835;-82
2023/01/11 08:18:16;;;;;;;53.58;31.25;;;4.80;71.90;;;;;;6051759;23;114569;-82
2023/01/11 08:20:44;;;;;;;50.65;29.25;;;4.90;71.80;;;;;;6052042;23;114715;-82
2023/01/11 08:23:11;;;;;;;54.15;31.73;;;5.00;71.30;;;;;;6050842;23;115079;-82
2023/01/11 08:25:39;;;;;;;52.55;31.42;;;4.90;71.00;;;;;;6052169;23;114562;-82
2023/01/11 08:28:06;;;;;;;54.00;33.15;;;4.80;71.30;;;;;;6051234;23;114530;-82
2023/01/11 08:30:34;;;;;;;48.15;30.00;;;4.80;71.50;;;;;;6052066;23;114443;-83
2023/01/11 08:33:02;;;;;;;48.78;29.65;;;4.80;71.70;;;;;;6050537;23;115030;-82
2023/01/11 08:35:30;;;;;;;44.47;27.63;;;5.00;71.50;;;;;;6050453;23;115120;-83
2023/01/11 08:37:57;;;;;;;41.78;23.83;;;5.10;71.00;;;;;;6027282;23;114425;-83
2023/01/11 08:40:24;;;;;;;42.15;26.23;;;5.10;70.50;;;;;;6051448;23;114710;-82
2023/01/11 08:42:58;;;;;;;41.95;25.15;;;5.20;70.60;;;;;;6051957;23;114973;-82
2023/01/11 08:45:25;;;;;;;42.75;24.70;;;5.30;70.40;;;;;;6051794;23;114977;-83
2023/01/11 08:47:52;;;;;;;37.63;24.40;;;5.40;70.30;;;;;;6051347;23;114357;-83
2023/01/11 08:50:20;;;;;;;37.95;23.42;;;5.40;70.00;;;;;;6027784;23;114644;-83
2023/01/11 08:52:49;;;;;;;39.15;22.92;;;5.50;69.90;;;;;;6049937;23;115042;-83
2023/01/11 08:55:20;;;;;;;36.40;21.50;;;5.50;69.60;;;;;;6051313;23;114562;-83
2023/01/11 08:57:50;;;;;;;32.72;19.20;;;5.60;69.50;;;;;;6075877;23;115715;-83
2023/01/11 09:00:18;;;;;;;31.75;19.50;;;5.60;69.30;;;;;;6051464;23;114570;-83
2023/01/11 09:02:45;;;;;;;30.65;19.77;;;5.70;69.30;;;;;;6049786;23;114946;-84
2023/01/11 09:05:13;;;;;;;32.03;19.48;;;5.70;69.00;;;;;;6051794;23;114801;-83
2023/01/11 09:07:44;;;;;;;34.17;19.67;;;5.80;68.70;;;;;;6051436;23;114814;-83
2023/01/11 09:10:25;;;;;;;33.65;18.75;;;5.90;68.50;;;;;;6052771;23;114330;-83
2023/01/11 09:12:53;;;;;;;30.85;18.25;;;5.90;68.20;;;;;;6026661;23;115774;-83
2023/01/11 09:15:20;;;;;;;28.55;16.95;;;5.90;67.90;;;;;;6026221;23;114677;-82
2023/01/11 09:17:49;;;;;;;30.50;17.48;;;5.90;67.60;;;;;;6027494;23;114545;-82
2023/01/11 09:20:16;;;;;;;25.52;14.20;;;6.00;67.50;;;;;;6053302;23;114675;-84
2023/01/11 09:22:51;;;;;;;19.95;13.45;;;5.90;67.20;;;;;;6026146;23;115117;-82
2023/01/11 09:25:19;;;;;;;23.92;14.00;;;6.00;66.60;;;;;;6050262;23;114632;-82
2023/01/11 09:27:48;;;;;;;20.73;13.00;;;6.00;66.80;;;;;;6050153;23;114513;-82
2023/01/11 09:30:20;;;;;;;21.63;12.77;;;6.10;66.40;;;;;;6051164;23;114404;-83
2023/01/11 09:32:48;;;;;;;17.80;10.70;;;6.10;66.60;;;;;;6051703;23;115535;-82
2023/01/11 09:35:16;;;;;;;14.95;9.77;;;6.20;66.40;;;;;;6050232;23;114728;-82
2023/01/11 09:37:52;;;;;;;17.73;9.68;;;6.20;65.90;;;;;;6051121;23;114666;-82
2023/01/11 09:40:28;;;;;;;14.75;10.20;;;6.30;65.40;;;;;;6050550;23;115137;-82
2023/01/11 09:43:00;;;;;;;15.80;10.25;;;6.20;65.90;;;;;;6049899;23;115097;-83
2023/01/11 09:45:29;;;;;;;19.40;10.60;;;6.30;65.70;;;;;;6027805;23;115525;-83
2023/01/11 09:48:14;;;;;;;15.40;9.40;;;6.40;65.70;;;;;;6028555;23;114514;-82
2023/01/11 09:50:44;;;;;;;15.18;9.05;;;6.50;65.40;;;;;;6057560;23;114525;-84
2023/01/11 09:53:19;;;;;;;12.68;8.07;;;6.40;65.20;;;;;;6076394;23;115151;-83
2023/01/11 09:55:46;;;;;;;11.85;8.25;;;6.50;64.70;;;;;;6050016;23;114719;-83
2023/01/11 09:59:02;;;;;;;15.65;8.20;;;6.50;65.10;;;;;;6051291;23;114512;-84
2023/01/11 10:01:36;;;;;;;;;;;6.60;65.20;;;;;;6052273;23;114858;-83
2023/01/11 10:04:16;;;;;;;12.37;7.63;;;6.50;66.20;;;;;;6027117;23;118485;-83
2023/01/11 10:07:33;;;;;;;11.13;7.15;;;6.60;64.50;;;;;;6074779;23;117714;-83
2023/01/11 10:10:15;;;;;;;10.48;6.32;;;6.60;63.90;;;;;;6031283;23;114716;-84
2023/01/11 10:13:44;;;;;;;10.98;6.95;;;6.60;63.80;;;;;;6075471;23;114592;-84
2023/01/11 10:16:35;;;;;;;11.00;7.32;;;6.50;63.20;;;;;;6045865;23;115010;-85
2023/01/11 10:19:33;;;;;;;13.75;6.75;;;6.50;63.10;;;;;;6050883;23;114692;-83
2023/01/11 10:22:30;;;;;;;8.95;6.72;;;6.50;63.10;;;;;;6028457;23;114563;-83
2023/01/11 10:25:20;;;;;;;12.30;7.88;;;6.50;63.00;;;;;;6028478;23;114386;-83
2023/01/11 10:28:21;;;;;;;9.00;7.00;;;6.50;63.40;;;;;;6049548;23;115111;-86
2023/01/11 10:34:04;;;;;;;10.55;6.40;;;6.60;63.10;;;;;;6050359;23;114525;-84
2023/01/11 10:36:59;;;;;;;9.88;6.35;;;6.70;62.80;;;;;;6050857;23;114562;-84
2023/01/11 10:42:22;;;;;;;10.55;6.25;;;6.70;62.50;;;;;;6049895;23;115599;-83
2023/01/11 10:45:01;;;;;;;9.68;6.10;;;6.70;62.40;;;;;;5979990;23;114490;-83
2023/01/11 10:47:38;;;;;;;10.88;6.82;;;6.80;61.60;;;;;;6052285;23;114719;-83
2023/01/11 10:50:27;;;;;;;12.10;6.75;;;6.80;61.90;;;;;;6025924;23;115215;-82
2023/01/11 10:53:06;;;;;;;10.55;6.22;;;6.90;61.90;;;;;;6049330;23;114646;-84
2023/01/11 10:56:07;;;;;;;7.78;5.93;;;6.90;61.70;;;;;;6026565;23;114398;-84
2023/01/11 10:59:30;;;;;;;9.05;6.07;;;6.90;61.60;;;;;;6021689;23;115300;-83
2023/01/11 11:02:24;;;;;;;10.27;6.07;;;7.00;61.60;;;;;;6049501;23;115575;-83
2023/01/11 11:05:27;;;;;;;10.80;6.13;;;7.00;61.70;;;;;;6071816;23;114718;-83
2023/01/11 11:08:34;;;;;;;9.82;5.65;;;7.00;61.50;;;;;;6071576;23;114366;-83
2023/01/11 11:11:15;;;;;;;10.13;6.05;;;7.10;61.50;;;;;;6027618;23;114687;-83
2023/01/11 11:13:54;;;;;;;11.95;7.15;;;7.00;61.20;;;;;;6025941;23;116070;-83
2023/01/11 11:16:21;;;;;;;13.05;8.15;;;7.00;60.20;;;;;;6071843;23;115162;-84
2023/01/11 11:18:54;;;;;;;13.32;8.65;;;7.00;60.40;;;;;;6051401;23;114667;-83
2023/01/11 11:21:34;;;;;;;13.20;7.70;;;7.00;60.30;;;;;;6027031;23;115407;-82
2023/01/11 11:24:12;;;;;;;13.95;8.82;;;7.00;60.60;;;;;;6024320;23;115587;-83
2023/01/11 11:26:43;;;;;;;14.45;9.43;;;7.10;60.80;;;;;;6024812;23;115118;-83
2023/01/11 11:29:10;;;;;;;12.55;8.52;;;7.10;61.00;;;;;;6049389;23;114567;-83
2023/01/11 11:31:42;;;;;;;16.63;8.70;;;7.10;60.40;;;;;;6073337;23;114983;-83
2023/01/11 11:34:17;;;;;;;15.07;9.15;;;7.20;60.40;;;;;;6048133;23;115129;-83
2023/01/11 11:36:47;;;;;;;13.63;9.30;;;7.20;59.80;;;;;;6029198;23;114714;-83
2023/01/11 11:39:26;;;;;;;13.70;9.20;;;7.20;60.00;;;;;;6085426;23;114909;-83
2023/01/11 11:41:55;;;;;;;13.98;8.48;;;7.20;59.70;;;;;;6081900;23;114947;-83
2023/01/11 11:44:25;;;;;;;14.55;8.88;;;7.20;60.10;;;;;;6050807;23;115095;-83
2023/01/11 11:47:00;;;;;;;14.90;9.32;;;7.20;59.80;;;;;;6028023;23;115043;-83
2023/01/11 11:49:31;;;;;;;15.20;8.95;;;7.30;59.60;;;;;;6052079;23;114344;-84
2023/01/11 11:51:59;;;;;;;16.05;9.07;;;7.30;59.90;;;;;;6076259;23;114767;-83
2023/01/11 11:54:34;;;;;;;13.13;9.40;;;7.40;59.80;;;;;;6026503;23;117981;-83
2023/01/11 11:57:25;;;;;;;13.98;8.98;;;7.40;59.50;;;;;;6050579;23;115824;-83
2023/01/11 12:00:04;;;;;;;13.85;8.43;;;7.50;59.40;;;;;;6052807;23;114700;-84
2023/01/11 12:02:34;;;;;;;13.95;9.27;;;7.40;59.50;;;;;;6053568;23;114441;-84
2023/01/11 12:05:07;;;;;;;13.15;8.63;;;7.40;59.60;;;;;;6051823;23;114936;-84
2023/01/11 12:07:36;;;;;;;15.07;8.97;;;7.40;59.40;;;;;;6026501;23;114594;-84
2023/01/11 12:10:25;;;;;;;15.13;9.50;;;7.40;59.40;;;;;;6051142;23;114498;-84
2023/01/11 12:12:58;;;;;;;16.13;9.90;;;7.40;58.90;;;;;;6051621;23;114269;-83
2023/01/11 12:15:30;;;;;;;15.10;9.85;;;7.30;59.00;;;;;;6050063;23;115005;-82
2023/01/11 12:18:24;;;;;;;;;;;7.30;59.30;;;;;;6003979;23;114759;-83
2023/01/11 12:20:51;;;;;;;14.40;9.27;;;7.30;60.20;;;;;;6053323;23;115328;-83
2023/01/11 12:23:23;;;;;;;15.60;9.38;;;7.20;60.00;;;;;;6052260;23;114513;-83
2023/01/11 12:26:50;;;;;;;10.90;7.57;;;7.40;59.60;;;;;;6074410;23;115087;-82
2023/01/11 12:29:53;;;;;;;11.60;8.15;;;7.40;58.90;;;;;;6024899;23;114615;-83
2023/01/11 12:32:39;;;;;;;13.30;7.78;;;7.40;59.30;;;;;;6028702;23;114512;-82
2023/01/11 12:35:55;;;;;;;14.27;9.00;;;7.40;59.10;;;;;;6054269;23;115176;-83
2023/01/11 12:38:55;;;;;;;12.25;7.53;;;7.40;59.00;;;;;;6052823;23;115189;-83
2023/01/11 12:41:56;;;;;;;11.63;7.70;;;7.40;59.10;;;;;;6051439;23;116264;-83
2023/01/11 12:44:54;;;;;;;15.73;8.65;;;7.40;58.90;;;;;;6054176;23;114330;-83
2023/01/11 12:47:45;;;;;;;14.15;8.45;;;7.40;59.10;;;;;;6054691;23;114753;-83
2023/01/11 12:50:27;;;;;;;12.95;8.80;;;7.40;58.80;;;;;;6053438;23;115046;-83
2023/01/11 12:53:28;;;;;;;11.38;7.82;;;7.50;58.80;;;;;;6052178;23;114594;-83
2023/01/11 12:56:09;;;;;;;11.95;7.82;;;7.50;59.10;;;;;;6054611;23;114537;-83
2023/01/11 12:58:50;;;;;;;12.57;7.60;;;7.50;58.70;;;;;;6053897;23;114408;-83
2023/01/11 13:01:58;;;;;;;14.57;8.50;;;7.50;58.60;;;;;;6052528;23;115489;-83
2023/01/11 13:04:50;;;;;;;16.60;9.30;;;7.50;58.70;;;;;;6051614;23;117387;-84
2023/01/11 13:07:58;;;;;;;15.25;9.48;;;7.40;58.90;;;;;;6052459;23;114071;-83
2023/01/11 13:10:54;;;;;;;13.18;8.85;;;7.50;59.20;;;;;;6076835;23;114437;-83
2023/01/11 13:14:01;;;;;;;12.95;8.85;;;7.40;59.50;;;;;;6051708;23;115188;-83
2023/01/11 13:16:40;;;;;;;12.82;8.48;;;7.50;59.30;;;;;;6028206;23;114862;-83
2023/01/11 13:19:20;;;;;;;13.32;9.13;;;7.40;59.30;;;;;;6029620;23;114428;-83
2023/01/11 13:21:52;;;;;;;15.35;9.57;;;7.40;59.10;;;;;;6052685;23;114527;-84
2023/01/11 13:24:26;;;;;;;15.77;10.20;;;7.40;59.20;;;;;;6028887;23;114953;-82
2023/01/11 13:26:57;;;;;;;15.00;9.80;;;7.30;59.30;;;;;;6030739;23;115210;-84
2023/01/11 13:29:30;;;;;;;15.73;10.70;;;7.40;59.60;;;;;;6038653;23;114347;-82
2023/01/11 13:32:01;;;;;;;13.95;9.43;;;7.40;59.60;;;;;;6048694;23;114280;-83
2023/01/11 13:34:44;;;;;;;14.95;8.98;;;7.40;59.30;;;;;;6029133;23;115184;-83